createdAt,value
2018-02-07T00:00:10.492Z,99.99
2018-02-07T00:01:10.456Z,99.99
2018-02-07T00:02:10.446Z,99.99
2018-02-07T00:03:10.467Z,99.99
2018-02-07T00:04:10.424Z,99.32
2018-02-07T00:05:10.421Z,98.75
2018-02-07T00:06:10.398Z,99.03
2018-02-07T00:07:10.385Z,98.75
2018-02-07T00:08:10.378Z,99.60
2018-02-07T00:09:10.360Z,99.69
2018-02-07T00:10:10.350Z,99.88
2018-02-07T00:11:10.340Z,99.99
2018-02-07T00:12:10.324Z,99.99
2018-02-07T00:13:10.319Z,99.99
2018-02-07T00:14:10.300Z,99.99
2018-02-07T00:15:10.300Z,99.98
2018-02-07T00:16:10.279Z,99.69
2018-02-07T00:17:10.262Z,99.32
2018-02-07T00:18:10.254Z,99.60
2018-02-07T00:19:10.267Z,99.99
2018-02-07T00:20:10.225Z,99.99
2018-02-07T00:21:10.211Z,99.99
2018-02-07T00:22:10.230Z,99.99
2018-02-07T00:23:10.216Z,99.99
2018-02-07T00:24:12.172Z,99.99
2018-02-07T00:25:10.164Z,99.60
2018-02-07T00:26:10.154Z,99.41
2018-02-07T00:27:10.150Z,98.75
2018-02-07T00:28:10.129Z,99.88
2018-02-07T00:29:10.117Z,99.99
2018-02-07T00:30:10.103Z,99.99
2018-02-07T00:31:10.094Z,99.99
2018-02-07T00:32:10.076Z,99.99
2018-02-07T00:33:10.065Z,99.99
2018-02-07T00:34:10.056Z,99.99
2018-02-07T00:35:10.073Z,99.99
2018-02-07T00:36:10.027Z,99.99
2018-02-07T00:37:10.011Z,99.99
2018-02-07T00:38:10.009Z,99.99
2018-02-07T00:39:09.994Z,99.99
2018-02-07T00:40:09.978Z,99.99
2018-02-07T00:41:09.965Z,99.99
2018-02-07T00:42:09.958Z,99.99
2018-02-07T00:43:09.956Z,99.99
2018-02-07T00:44:09.951Z,99.99
2018-02-07T00:45:09.913Z,99.99
2018-02-07T00:46:09.903Z,99.99
2018-02-07T00:47:09.891Z,99.99
2018-02-07T00:48:09.880Z,99.99
2018-02-07T00:49:09.865Z,99.99
2018-02-07T00:50:09.851Z,99.99
2018-02-07T00:51:09.840Z,99.69
2018-02-07T00:52:09.827Z,99.99
2018-02-07T00:53:09.816Z,99.99
2018-02-07T00:54:09.802Z,99.98
2018-02-07T00:55:09.797Z,99.79
2018-02-07T00:56:09.777Z,99.51
2018-02-07T00:57:09.769Z,99.69
2018-02-07T00:58:09.753Z,99.22
2018-02-07T00:59:09.742Z,99.88
2018-02-07T01:00:09.725Z,99.88
2018-02-07T01:01:09.715Z,99.51
2018-02-07T01:02:09.706Z,99.41
2018-02-07T01:03:09.690Z,99.99
2018-02-07T01:04:09.681Z,99.99
2018-02-07T01:05:09.669Z,99.99
2018-02-07T01:06:09.650Z,99.99
2018-02-07T01:07:09.643Z,99.99
2018-02-07T01:08:09.630Z,99.99
2018-02-07T01:09:09.613Z,99.99
2018-02-07T01:10:09.602Z,99.99
2018-02-07T01:11:09.591Z,99.99
2018-02-07T01:12:09.575Z,99.98
2018-02-07T01:13:09.564Z,99.88
2018-02-07T01:14:09.557Z,99.83
2018-02-07T01:15:09.564Z,98.70
2018-02-07T01:16:09.529Z,98.79
2018-02-07T01:17:09.514Z,98.89
2018-02-07T01:18:09.502Z,99.17
2018-02-07T01:19:09.492Z,98.70
2018-02-07T01:20:09.475Z,98.41
2018-02-07T01:21:09.466Z,98.51
2018-02-07T01:22:09.451Z,99.17
2018-02-07T01:23:09.439Z,98.98
2018-02-07T01:24:09.427Z,99.83
2018-02-07T01:25:09.415Z,99.36
2018-02-07T01:26:09.396Z,99.45
2018-02-07T01:27:09.406Z,99.93
2018-02-07T01:28:09.379Z,99.99
2018-02-07T01:29:09.358Z,99.83
2018-02-07T01:30:09.350Z,99.08
2018-02-07T01:31:09.340Z,98.79
2018-02-07T01:32:09.349Z,97.85
2018-02-07T01:33:09.342Z,99.08
2018-02-07T01:34:09.296Z,99.45
2018-02-07T01:35:09.289Z,99.99
2018-02-07T01:36:09.278Z,99.99
2018-02-07T01:37:09.259Z,99.99
2018-02-07T01:38:09.246Z,99.99
2018-02-07T01:39:09.235Z,99.99
2018-02-07T01:40:09.218Z,99.99
2018-02-07T01:41:09.202Z,99.99
2018-02-07T01:42:09.196Z,99.99
2018-02-07T01:43:09.178Z,99.99
2018-02-07T01:44:09.180Z,99.99
2018-02-07T01:45:09.154Z,99.99
2018-02-07T01:46:09.142Z,99.99
2018-02-07T01:47:09.138Z,99.99
2018-02-07T01:48:09.113Z,99.99
2018-02-07T01:49:09.098Z,99.99
2018-02-07T01:50:09.084Z,99.99
2018-02-07T01:51:09.072Z,99.64
2018-02-07T01:52:09.062Z,99.08
2018-02-07T01:53:09.047Z,98.79
2018-02-07T01:54:09.033Z,99.64
2018-02-07T01:55:09.021Z,98.98
2018-02-07T01:56:09.012Z,99.08
2018-02-07T01:57:09.011Z,98.89
2018-02-07T01:58:08.981Z,98.32
2018-02-07T01:59:08.974Z,99.17
2018-02-07T02:00:08.957Z,99.64
2018-02-07T02:01:08.944Z,99.74
2018-02-07T02:02:08.932Z,99.83
2018-02-07T02:03:08.915Z,99.93
2018-02-07T02:04:08.919Z,99.64
2018-02-07T02:05:08.893Z,98.89
2018-02-07T02:06:08.882Z,98.70
2018-02-07T02:07:08.869Z,98.70
2018-02-07T02:08:08.850Z,98.98
2018-02-07T02:09:08.838Z,98.98
2018-02-07T02:10:08.834Z,98.79
2018-02-07T02:11:08.814Z,99.36
2018-02-07T02:12:08.795Z,99.83
2018-02-07T02:13:08.792Z,99.83
2018-02-07T02:14:08.770Z,99.99
2018-02-07T02:15:08.762Z,99.99
2018-02-07T02:16:08.750Z,99.99
2018-02-07T02:17:08.748Z,99.99
2018-02-07T02:18:08.717Z,99.99
2018-02-07T02:19:08.705Z,99.99
2018-02-07T02:20:08.692Z,99.64
2018-02-07T02:21:08.682Z,98.89
2018-02-07T02:22:08.664Z,98.70
2018-02-07T02:23:08.649Z,97.75
2018-02-07T02:24:08.638Z,97.19
2018-02-07T02:25:08.625Z,97.94
2018-02-07T02:26:08.614Z,97.85
2018-02-07T02:27:08.618Z,98.79
2018-02-07T02:28:08.607Z,99.74
2018-02-07T02:29:08.605Z,99.64
2018-02-07T02:30:08.559Z,99.99
2018-02-07T02:31:08.547Z,99.99
2018-02-07T02:32:08.531Z,99.99
2018-02-07T02:33:08.518Z,99.99
2018-02-07T02:34:08.502Z,99.99
2018-02-07T02:35:08.492Z,99.99
2018-02-07T02:36:08.478Z,99.99
2018-02-07T02:37:08.464Z,99.64
2018-02-07T02:38:08.451Z,98.41
2018-02-07T02:39:08.438Z,97.47
2018-02-07T02:40:08.425Z,97.09
2018-02-07T02:41:08.409Z,97.09
2018-02-07T02:42:08.398Z,96.53
2018-02-07T02:43:08.383Z,96.62
2018-02-07T02:44:08.372Z,96.81
2018-02-07T02:45:08.358Z,97.38
2018-02-07T02:46:08.343Z,97.28
2018-02-07T02:47:08.335Z,97.75
2018-02-07T02:48:08.318Z,99.26
2018-02-07T02:49:08.303Z,99.93
2018-02-07T02:50:08.294Z,99.99
2018-02-07T02:51:08.276Z,99.99
2018-02-07T02:52:08.262Z,99.99
2018-02-07T02:53:08.249Z,99.99
2018-02-07T02:54:08.239Z,99.99
2018-02-07T02:55:08.226Z,99.64
2018-02-07T02:56:08.209Z,98.89
2018-02-07T02:57:08.197Z,98.79
2018-02-07T02:58:08.189Z,97.75
2018-02-07T02:59:08.170Z,97.38
2018-02-07T03:00:08.153Z,97.47
2018-02-07T03:01:08.140Z,97.75
2018-02-07T03:02:08.129Z,98.70
2018-02-07T03:03:08.113Z,98.41
2018-02-07T03:04:08.104Z,99.45
2018-02-07T03:05:08.083Z,99.99
2018-02-07T03:06:08.072Z,99.64
2018-02-07T03:07:08.065Z,99.08
2018-02-07T03:08:08.044Z,98.70
2018-02-07T03:09:08.034Z,98.60
2018-02-07T03:10:08.020Z,98.79
2018-02-07T03:11:08.002Z,99.08
2018-02-07T03:12:07.990Z,99.55
2018-02-07T03:13:07.986Z,99.99
2018-02-07T03:14:07.968Z,99.99
2018-02-07T03:15:07.950Z,99.99
2018-02-07T03:16:07.934Z,99.99
2018-02-07T03:17:07.922Z,99.36
2018-02-07T03:18:07.909Z,98.70
2018-02-07T03:19:07.895Z,98.60
2018-02-07T03:20:07.881Z,97.85
2018-02-07T03:21:07.869Z,98.79
2018-02-07T03:22:07.854Z,98.41
2018-02-07T03:23:07.844Z,98.41
2018-02-07T03:24:07.829Z,98.60
2018-02-07T03:25:07.812Z,98.41
2018-02-07T03:26:07.800Z,98.41
2018-02-07T03:27:07.785Z,98.70
2018-02-07T03:28:07.771Z,99.08
2018-02-07T03:29:07.760Z,99.08
2018-02-07T03:30:07.748Z,98.51
2018-02-07T03:31:07.730Z,98.70
2018-02-07T03:32:07.714Z,97.94
2018-02-07T03:33:07.713Z,97.94
2018-02-07T03:34:07.692Z,97.94
2018-02-07T03:35:07.676Z,97.94
2018-02-07T03:36:07.662Z,97.85
2018-02-07T03:37:07.647Z,98.04
2018-02-07T03:38:07.637Z,98.79
2018-02-07T03:39:07.620Z,98.89
2018-02-07T03:40:07.606Z,99.55
2018-02-07T03:41:07.593Z,98.60
2018-02-07T03:42:07.579Z,99.55
2018-02-07T03:43:07.565Z,99.99
2018-02-07T03:44:07.568Z,99.36
2018-02-07T03:45:07.540Z,99.64
2018-02-07T03:46:07.527Z,99.64
2018-02-07T03:47:07.510Z,99.17
2018-02-07T03:48:07.511Z,98.98
2018-02-07T03:49:07.505Z,98.89
2018-02-07T03:50:07.467Z,99.64
2018-02-07T03:51:07.457Z,99.45
2018-02-07T03:52:07.439Z,99.83
2018-02-07T03:53:07.444Z,99.74
2018-02-07T03:54:07.414Z,99.99
2018-02-07T03:55:07.430Z,99.45
2018-02-07T03:56:07.381Z,99.64
2018-02-07T03:57:07.370Z,99.64
2018-02-07T03:58:07.356Z,98.79
2018-02-07T03:59:07.340Z,99.26
2018-02-07T04:00:07.329Z,98.89
2018-02-07T04:01:07.316Z,98.70
2018-02-07T04:02:07.316Z,98.41
2018-02-07T04:03:07.288Z,99.45
2018-02-07T04:04:07.273Z,98.70
2018-02-07T04:05:07.279Z,99.83
2018-02-07T04:06:07.244Z,99.55
2018-02-07T04:07:07.252Z,99.93
2018-02-07T04:08:07.216Z,99.64
2018-02-07T04:09:07.204Z,99.99
2018-02-07T04:10:07.189Z,99.64
2018-02-07T04:11:07.177Z,98.89
2018-02-07T04:12:07.165Z,98.70
2018-02-07T04:13:07.160Z,98.04
2018-02-07T04:14:07.157Z,97.56
2018-02-07T04:15:07.121Z,97.19
2018-02-07T04:16:07.110Z,97.38
2018-02-07T04:17:07.102Z,96.39
2018-02-07T04:18:07.079Z,96.67
2018-02-07T04:19:07.067Z,96.39
2018-02-07T04:20:07.055Z,97.05
2018-02-07T04:21:07.038Z,97.89
2018-02-07T04:22:07.026Z,99.02
2018-02-07T04:23:07.008Z,98.46
2018-02-07T04:24:06.997Z,99.55
2018-02-07T04:25:06.983Z,99.45
2018-02-07T04:26:06.967Z,99.45
2018-02-07T04:27:06.951Z,99.83
2018-02-07T04:28:06.938Z,99.26
2018-02-07T04:29:06.923Z,98.89
2018-02-07T04:30:06.910Z,99.17
2018-02-07T04:31:06.895Z,98.98
2018-02-07T04:32:06.881Z,98.70
2018-02-07T04:33:06.868Z,98.41
2018-02-07T04:34:06.864Z,97.66
2018-02-07T04:35:06.845Z,97.75
2018-02-07T04:36:06.825Z,98.04
2018-02-07T04:37:06.812Z,98.04
2018-02-07T04:38:06.797Z,97.80
2018-02-07T04:39:06.783Z,97.42
2018-02-07T04:40:06.769Z,97.05
2018-02-07T04:41:06.762Z,97.05
2018-02-07T04:42:06.742Z,97.33
2018-02-07T04:43:06.728Z,98.46
2018-02-07T04:44:06.713Z,98.83
2018-02-07T04:45:06.699Z,98.83
2018-02-07T04:46:06.713Z,99.02
2018-02-07T04:47:06.672Z,98.55
2018-02-07T04:48:06.659Z,98.55
2018-02-07T04:49:06.644Z,98.65
2018-02-07T04:50:06.630Z,99.12
2018-02-07T04:51:06.614Z,98.93
2018-02-07T04:52:06.600Z,99.02
2018-02-07T04:53:06.609Z,98.98
2018-02-07T04:54:06.568Z,99.64
2018-02-07T04:55:06.556Z,99.74
2018-02-07T04:56:06.543Z,99.45
2018-02-07T04:57:06.528Z,99.99
2018-02-07T04:58:06.516Z,99.99
2018-02-07T04:59:06.502Z,99.64
2018-02-07T05:00:06.486Z,99.64
2018-02-07T05:01:06.476Z,99.64
2018-02-07T05:02:06.461Z,99.45
2018-02-07T05:03:06.459Z,99.64
2018-02-07T05:04:06.430Z,99.36
2018-02-07T05:05:06.416Z,98.89
2018-02-07T05:06:06.401Z,98.89
2018-02-07T05:07:06.387Z,99.64
2018-02-07T05:08:06.373Z,99.83
2018-02-07T05:09:06.358Z,99.64
2018-02-07T05:10:06.354Z,99.55
2018-02-07T05:11:06.331Z,99.45
2018-02-07T05:12:06.317Z,99.36
2018-02-07T05:13:06.300Z,99.55
2018-02-07T05:14:06.288Z,99.99
2018-02-07T05:15:06.276Z,99.99
2018-02-07T05:16:06.260Z,99.99
2018-02-07T05:17:06.248Z,99.99
2018-02-07T05:18:06.234Z,99.45
2018-02-07T05:19:06.217Z,99.36
2018-02-07T05:20:06.204Z,98.89
2018-02-07T05:21:06.217Z,98.60
2018-02-07T05:22:06.175Z,98.79
2018-02-07T05:23:06.160Z,99.08
2018-02-07T05:24:06.145Z,98.89
2018-02-07T05:25:06.131Z,99.17
2018-02-07T05:26:06.116Z,99.83
2018-02-07T05:27:06.106Z,98.98
2018-02-07T05:28:06.088Z,98.89
2018-02-07T05:29:06.085Z,98.89
2018-02-07T05:30:06.061Z,98.98
2018-02-07T05:31:06.048Z,98.89
2018-02-07T05:32:06.038Z,98.98
2018-02-07T05:33:06.020Z,98.70
2018-02-07T05:34:06.004Z,99.36
2018-02-07T05:35:05.994Z,99.26
2018-02-07T05:36:05.976Z,99.64
2018-02-07T05:37:05.962Z,98.70
2018-02-07T05:38:05.948Z,97.85
2018-02-07T05:39:05.934Z,97.00
2018-02-07T05:40:05.919Z,97.38
2018-02-07T05:41:05.903Z,96.91
2018-02-07T05:42:05.922Z,97.05
2018-02-07T05:43:05.878Z,97.05
2018-02-07T05:44:05.862Z,97.89
2018-02-07T05:45:05.851Z,98.74
2018-02-07T05:46:05.837Z,98.65
2018-02-07T05:47:05.824Z,97.99
2018-02-07T05:48:05.810Z,97.99
2018-02-07T05:49:05.793Z,98.18
2018-02-07T05:50:05.779Z,98.36
2018-02-07T05:51:05.768Z,98.46
2018-02-07T05:52:05.752Z,99.02
2018-02-07T05:53:05.735Z,98.83
2018-02-07T05:54:05.722Z,98.83
2018-02-07T05:55:05.708Z,99.68
2018-02-07T05:56:05.697Z,99.31
2018-02-07T05:57:05.679Z,99.87
2018-02-07T05:58:05.665Z,99.40
2018-02-07T05:59:05.650Z,99.40
2018-02-07T06:00:05.635Z,99.64
2018-02-07T06:01:05.624Z,99.40
2018-02-07T06:02:05.608Z,99.64
2018-02-07T06:03:05.594Z,99.64
2018-02-07T06:04:05.584Z,99.02
2018-02-07T06:05:05.564Z,98.98
2018-02-07T06:06:05.557Z,98.89
2018-02-07T06:07:05.538Z,98.70
2018-02-07T06:08:05.522Z,98.60
2018-02-07T06:09:05.509Z,98.55
2018-02-07T06:10:05.496Z,98.60
2018-02-07T06:11:05.482Z,98.55
2018-02-07T06:12:05.466Z,98.27
2018-02-07T06:13:05.452Z,98.55
2018-02-07T06:14:05.438Z,97.52
2018-02-07T06:15:05.425Z,97.33
2018-02-07T06:16:05.408Z,96.48
2018-02-07T06:17:05.394Z,96.67
2018-02-07T06:18:05.378Z,96.86
2018-02-07T06:19:05.367Z,97.89
2018-02-07T06:20:05.351Z,98.65
2018-02-07T06:21:05.337Z,98.83
2018-02-07T06:22:05.325Z,99.02
2018-02-07T06:23:05.319Z,98.36
2018-02-07T06:24:05.294Z,98.74
2018-02-07T06:25:05.280Z,98.36
2018-02-07T06:26:05.267Z,99.31
2018-02-07T06:27:05.251Z,98.83
2018-02-07T06:28:05.254Z,98.65
2018-02-07T06:29:05.224Z,99.02
2018-02-07T06:30:05.207Z,99.78
2018-02-07T06:31:05.196Z,99.55
2018-02-07T06:32:05.181Z,99.31
2018-02-07T06:33:05.162Z,98.74
2018-02-07T06:34:05.151Z,98.36
2018-02-07T06:35:05.134Z,98.74
2018-02-07T06:36:05.119Z,99.02
2018-02-07T06:37:05.107Z,99.40
2018-02-07T06:38:05.094Z,99.97
2018-02-07T06:39:05.093Z,99.64
2018-02-07T06:40:05.066Z,99.93
2018-02-07T06:41:05.056Z,99.74
2018-02-07T06:42:05.033Z,99.99
2018-02-07T06:43:05.022Z,99.99
2018-02-07T06:44:05.005Z,99.99
2018-02-07T06:45:04.991Z,99.99
2018-02-07T06:46:04.980Z,99.99
2018-02-07T06:47:04.959Z,99.99
2018-02-07T06:48:04.945Z,99.99
2018-02-07T06:49:04.932Z,99.99
2018-02-07T06:50:04.924Z,99.74
2018-02-07T06:51:04.903Z,99.83
2018-02-07T06:52:04.892Z,98.60
2018-02-07T06:53:04.877Z,98.70
2018-02-07T06:54:04.860Z,98.32
2018-02-07T06:55:04.847Z,98.41
2018-02-07T06:56:04.921Z,98.79
2018-02-07T06:57:04.818Z,98.04
2018-02-07T06:58:04.803Z,97.85
2018-02-07T06:59:04.791Z,98.60
2018-02-07T07:00:04.776Z,98.60
2018-02-07T07:01:04.763Z,97.85
2018-02-07T07:02:04.753Z,97.94
2018-02-07T07:03:04.755Z,97.94
2018-02-07T07:04:04.721Z,98.41
2018-02-07T07:05:04.704Z,99.17
2018-02-07T07:06:04.690Z,99.17
2018-02-07T07:07:04.682Z,99.45
2018-02-07T07:08:04.663Z,98.70
2018-02-07T07:09:04.648Z,98.41
2018-02-07T07:10:04.634Z,98.51
2018-02-07T07:11:04.620Z,98.41
2018-02-07T07:12:04.606Z,98.70
2018-02-07T07:13:04.609Z,97.94
2018-02-07T07:14:04.588Z,98.70
2018-02-07T07:15:04.561Z,98.60
2018-02-07T07:16:04.551Z,98.51
2018-02-07T07:17:04.539Z,97.94
2018-02-07T07:18:04.521Z,97.75
2018-02-07T07:19:04.510Z,97.09
2018-02-07T07:20:04.493Z,97.56
2018-02-07T07:21:04.481Z,97.28
2018-02-07T07:22:04.466Z,97.56
2018-02-07T07:23:04.452Z,97.28
2018-02-07T07:24:04.438Z,97.09
2018-02-07T07:25:04.425Z,97.38
2018-02-07T07:26:04.411Z,97.94
2018-02-07T07:27:04.398Z,98.79
2018-02-07T07:28:04.384Z,98.32
2018-02-07T07:29:04.385Z,98.60
2018-02-07T07:30:04.358Z,97.94
2018-02-07T07:31:04.345Z,98.13
2018-02-07T07:32:04.329Z,97.85
2018-02-07T07:33:04.317Z,97.94
2018-02-07T07:34:04.303Z,98.79
2018-02-07T07:35:04.288Z,98.70
2018-02-07T07:36:04.280Z,98.23
2018-02-07T07:37:04.261Z,98.70
2018-02-07T07:38:04.253Z,97.94
2018-02-07T07:39:04.237Z,97.09
2018-02-07T07:40:04.224Z,97.00
2018-02-07T07:41:04.208Z,96.53
2018-02-07T07:42:04.195Z,97.38
2018-02-07T07:43:04.183Z,97.09
2018-02-07T07:44:04.169Z,97.09
2018-02-07T07:45:04.156Z,97.47
2018-02-07T07:46:04.143Z,97.19
2018-02-07T07:47:04.130Z,97.28
2018-02-07T07:48:04.213Z,97.47
2018-02-07T07:49:04.104Z,96.91
2018-02-07T07:50:04.090Z,97.38
2018-02-07T07:51:04.078Z,97.19
2018-02-07T07:52:04.069Z,97.38
2018-02-07T07:53:04.053Z,96.81
2018-02-07T07:54:04.039Z,96.72
2018-02-07T07:55:04.025Z,96.81
2018-02-07T07:56:04.013Z,96.62
2018-02-07T07:57:04.000Z,96.91
2018-02-07T07:58:03.985Z,97.38
2018-02-07T07:59:04.001Z,97.19
2018-02-07T08:00:03.959Z,97.56
2018-02-07T08:01:03.955Z,97.38
2018-02-07T08:02:03.936Z,97.56
2018-02-07T08:03:03.943Z,97.38
2018-02-07T08:04:03.910Z,97.47
2018-02-07T08:05:03.903Z,97.94
2018-02-07T08:06:03.886Z,97.75
2018-02-07T08:07:03.876Z,97.66
2018-02-07T08:08:03.860Z,97.94
2018-02-07T08:09:03.845Z,97.19
2018-02-07T08:10:03.832Z,97.38
2018-02-07T08:11:03.823Z,97.47
2018-02-07T08:12:03.814Z,97.94
2018-02-07T08:13:03.804Z,98.28
2018-02-07T08:14:03.785Z,98.65
2018-02-07T08:15:03.769Z,98.65
2018-02-07T08:16:03.757Z,98.75
2018-02-07T08:17:03.744Z,99.22
2018-02-07T08:18:03.734Z,98.94
2018-02-07T08:19:03.722Z,98.65
2018-02-07T08:20:03.714Z,99.32
2018-02-07T08:21:03.705Z,98.75
2018-02-07T08:22:03.682Z,98.94
2018-02-07T08:23:03.670Z,98.75
2018-02-07T08:24:03.656Z,98.37
2018-02-07T08:25:03.648Z,97.90
2018-02-07T08:26:03.634Z,97.71
2018-02-07T08:27:03.625Z,97.90
2018-02-07T08:28:03.611Z,97.61
2018-02-07T08:29:03.600Z,97.33
2018-02-07T08:30:03.590Z,97.48
2018-02-07T08:31:03.594Z,97.38
2018-02-07T08:32:03.565Z,97.19
2018-02-07T08:33:03.553Z,97.48
2018-02-07T08:34:03.541Z,96.63
2018-02-07T08:35:03.530Z,95.36
2018-02-07T08:36:03.517Z,92.66
2018-02-07T08:37:03.505Z,90.40
2018-02-07T08:38:03.495Z,88.08
2018-02-07T08:39:03.491Z,85.38
2018-02-07T08:40:03.472Z,82.35
2018-02-07T08:41:03.487Z,81.07
2018-02-07T08:42:03.520Z,79.47
2018-02-07T08:43:03.444Z,78.52
2018-02-07T08:44:03.437Z,77.04
2018-02-07T08:45:03.423Z,75.53
2018-02-07T08:46:03.414Z,74.11
2018-02-07T08:47:03.407Z,73.54
2018-02-07T08:48:03.398Z,72.60
2018-02-07T08:49:03.393Z,71.36
2018-02-07T08:50:03.385Z,71.65
2018-02-07T08:51:03.381Z,71.50
2018-02-07T08:52:03.371Z,70.17
2018-02-07T08:53:03.365Z,69.82
2018-02-07T08:54:03.361Z,68.40
2018-02-07T08:55:03.355Z,67.36
2018-02-07T08:56:03.349Z,66.51
2018-02-07T08:57:03.349Z,66.83
2018-02-07T08:58:03.347Z,66.16
2018-02-07T08:59:03.332Z,64.93
2018-02-07T09:00:03.344Z,64.49
2018-02-07T09:01:03.326Z,64.01
2018-02-07T09:02:03.319Z,64.97
2018-02-07T09:03:03.324Z,63.82
2018-02-07T09:04:03.314Z,64.01
2018-02-07T09:05:03.308Z,63.64
2018-02-07T09:06:03.309Z,63.29
2018-02-07T09:07:03.306Z,62.82
2018-02-07T09:08:03.306Z,61.30
2018-02-07T09:09:03.301Z,61.77
2018-02-07T09:10:03.303Z,60.35
2018-02-07T09:11:03.298Z,60.16
2018-02-07T09:12:03.301Z,61.11
2018-02-07T09:13:03.299Z,61.14
2018-02-07T09:14:03.298Z,59.88
2018-02-07T09:15:03.298Z,60.06
2018-02-07T09:16:03.304Z,60.82
2018-02-07T09:17:03.303Z,60.44
2018-02-07T09:18:03.301Z,60.44
2018-02-07T09:19:03.308Z,60.25
2018-02-07T09:20:03.305Z,60.44
2018-02-07T09:21:03.309Z,61.01
2018-02-07T09:22:03.308Z,60.50
2018-02-07T09:23:03.313Z,60.82
2018-02-07T09:24:03.322Z,60.63
2018-02-07T09:25:03.316Z,60.16
2018-02-07T09:26:03.324Z,61.30
2018-02-07T09:27:03.333Z,63.51
2018-02-07T09:28:03.340Z,61.61
2018-02-07T09:29:03.336Z,59.81
2018-02-07T09:30:03.341Z,59.24
2018-02-07T09:31:03.349Z,58.67
2018-02-07T09:32:03.349Z,59.21
2018-02-07T09:33:03.358Z,60.06
2018-02-07T09:34:03.360Z,59.33
2018-02-07T09:35:03.368Z,59.43
2018-02-07T09:36:03.371Z,58.76
2018-02-07T09:37:03.378Z,58.29
2018-02-07T09:38:03.389Z,58.20
2018-02-07T09:39:03.391Z,59.30
2018-02-07T09:40:03.396Z,59.62
2018-02-07T09:41:03.407Z,60.57
2018-02-07T09:42:03.414Z,58.98
2018-02-07T09:43:03.422Z,58.51
2018-02-07T09:44:03.421Z,56.42
2018-02-07T09:45:03.431Z,56.89
2018-02-07T09:46:03.439Z,57.97
2018-02-07T09:47:03.450Z,55.59
2018-02-07T09:48:03.447Z,55.76
2018-02-07T09:49:03.455Z,55.85
2018-02-07T09:50:03.464Z,56.61
2018-02-07T09:51:03.469Z,57.72
2018-02-07T09:52:03.473Z,59.71
2018-02-07T09:53:03.482Z,59.88
2018-02-07T09:54:03.510Z,60.06
2018-02-07T09:55:03.498Z,60.98
2018-02-07T09:56:03.500Z,62.91
2018-02-07T09:57:03.507Z,63.13
2018-02-07T09:58:03.513Z,63.04
2018-02-07T09:59:03.521Z,62.12
2018-02-07T10:00:03.527Z,60.88
2018-02-07T10:01:03.531Z,59.46
2018-02-07T10:02:03.538Z,59.11
2018-02-07T10:03:03.545Z,58.25
2018-02-07T10:04:03.551Z,56.54
2018-02-07T10:05:03.557Z,57.40
2018-02-07T10:06:03.563Z,58.44
2018-02-07T10:07:03.570Z,58.66
2018-02-07T10:08:03.581Z,56.85
2018-02-07T10:09:03.584Z,54.36
2018-02-07T10:10:03.591Z,54.64
2018-02-07T10:11:03.600Z,55.76
2018-02-07T10:12:03.606Z,55.76
2018-02-07T10:13:03.615Z,55.66
2018-02-07T10:14:03.620Z,56.32
2018-02-07T10:15:03.628Z,57.94
2018-02-07T10:16:03.635Z,57.28
2018-02-07T10:17:03.651Z,58.89
2018-02-07T10:18:03.651Z,56.61
2018-02-07T10:19:03.657Z,56.51
2018-02-07T10:20:03.666Z,56.42
2018-02-07T10:21:03.675Z,55.44
2018-02-07T10:22:03.683Z,56.36
2018-02-07T10:23:03.690Z,59.27
2018-02-07T10:24:03.700Z,60.98
2018-02-07T10:25:03.725Z,61.74
2018-02-07T10:26:03.720Z,62.47
2018-02-07T10:27:03.721Z,63.32
2018-02-07T10:28:03.736Z,64.27
2018-02-07T10:29:03.744Z,64.27
2018-02-07T10:30:03.758Z,64.74
2018-02-07T10:31:03.756Z,64.08
2018-02-07T10:32:03.766Z,63.23
2018-02-07T10:33:03.774Z,63.67
2018-02-07T10:34:03.785Z,64.84
2018-02-07T10:35:03.789Z,65.78
2018-02-07T10:36:03.801Z,66.80
2018-02-07T10:37:03.811Z,67.02
2018-02-07T10:38:03.821Z,67.68
2018-02-07T10:39:03.825Z,66.80
2018-02-07T10:40:03.830Z,66.51
2018-02-07T10:41:03.843Z,66.22
2018-02-07T10:42:03.852Z,67.05
2018-02-07T10:43:03.861Z,67.90
2018-02-07T10:44:03.865Z,68.84
2018-02-07T10:45:03.874Z,69.26
2018-02-07T10:46:03.922Z,70.39
2018-02-07T10:47:03.894Z,69.82
2018-02-07T10:48:03.900Z,68.31
2018-02-07T10:49:03.912Z,68.02
2018-02-07T10:50:03.917Z,68.21
2018-02-07T10:51:03.924Z,67.55
2018-02-07T10:52:03.935Z,68.02
2018-02-07T10:53:03.939Z,69.54
2018-02-07T10:54:03.946Z,69.70
2018-02-07T10:55:03.952Z,70.07
2018-02-07T10:56:03.959Z,68.84
2018-02-07T10:57:03.965Z,70.36
2018-02-07T10:58:03.971Z,70.55
2018-02-07T10:59:03.978Z,69.60
2018-02-07T11:00:03.980Z,69.92
2018-02-07T11:01:03.984Z,70.49
2018-02-07T11:02:03.989Z,70.20
2018-02-07T11:03:03.991Z,70.20
2018-02-07T11:04:03.995Z,68.88
2018-02-07T11:05:03.999Z,67.83
2018-02-07T11:06:04.004Z,69.17
2018-02-07T11:07:04.012Z,68.37
2018-02-07T11:08:04.015Z,69.03
2018-02-07T11:09:04.011Z,70.17
2018-02-07T11:10:04.009Z,71.21
2018-02-07T11:11:04.010Z,71.40
2018-02-07T11:12:04.010Z,71.21
2018-02-07T11:13:04.019Z,71.31
2018-02-07T11:14:04.011Z,70.93
2018-02-07T11:15:04.013Z,70.89
2018-02-07T11:16:04.020Z,72.06
2018-02-07T11:17:04.014Z,73.20
2018-02-07T11:18:04.014Z,72.25
2018-02-07T11:19:04.011Z,71.97
2018-02-07T11:20:04.009Z,71.97
2018-02-07T11:21:04.010Z,71.97
2018-02-07T11:22:04.009Z,71.78
2018-02-07T11:23:04.018Z,71.40
2018-02-07T11:24:04.060Z,70.93
2018-02-07T11:25:04.010Z,71.02
2018-02-07T11:26:04.015Z,70.98
2018-02-07T11:27:04.003Z,71.97
2018-02-07T11:28:04.001Z,72.25
2018-02-07T11:29:03.997Z,72.73
2018-02-07T11:30:03.996Z,72.92
2018-02-07T11:31:03.995Z,71.59
2018-02-07T11:32:03.992Z,70.93
2018-02-07T11:33:03.991Z,70.26
2018-02-07T11:34:03.986Z,70.07
2018-02-07T11:35:03.987Z,71.12
2018-02-07T11:36:03.982Z,71.31
2018-02-07T11:37:03.981Z,70.83
2018-02-07T11:38:04.413Z,71.21
2018-02-07T11:39:03.973Z,72.06
2018-02-07T11:40:03.971Z,72.44
2018-02-07T11:41:03.967Z,73.20
2018-02-07T11:42:03.967Z,74.52
2018-02-07T11:43:03.961Z,73.68
2018-02-07T11:44:03.961Z,72.63
2018-02-07T11:45:03.958Z,73.20
2018-02-07T11:46:03.954Z,73.30
2018-02-07T11:47:03.952Z,73.58
2018-02-07T11:48:03.948Z,72.73
2018-02-07T11:49:03.945Z,72.73
2018-02-07T11:50:03.943Z,72.34
2018-02-07T11:51:03.936Z,72.16
2018-02-07T11:52:04.167Z,72.22
2018-02-07T11:53:03.974Z,72.88
2018-02-07T11:54:03.928Z,73.26
2018-02-07T11:55:03.924Z,74.02
2018-02-07T11:56:03.960Z,76.38
2018-02-07T11:57:03.914Z,76.95
2018-02-07T11:58:03.994Z,76.67
2018-02-07T11:59:03.968Z,76.00
2018-02-07T12:00:03.905Z,75.43
2018-02-07T12:01:03.903Z,75.15
2018-02-07T12:02:04.179Z,75.38
2018-02-07T12:03:03.898Z,75.66
2018-02-07T12:04:03.890Z,74.33
2018-02-07T12:05:03.895Z,73.77
2018-02-07T12:06:03.883Z,73.30
2018-02-07T12:07:03.880Z,73.30
2018-02-07T12:08:03.876Z,72.44
2018-02-07T12:09:03.874Z,73.83
2018-02-07T12:10:03.867Z,75.53
2018-02-07T12:11:03.878Z,76.48
2018-02-07T12:12:03.858Z,76.76
2018-02-07T12:13:03.854Z,76.19
2018-02-07T12:14:03.850Z,75.43
2018-02-07T12:15:03.848Z,75.34
2018-02-07T12:16:03.851Z,75.95
2018-02-07T12:17:03.906Z,75.38
2018-02-07T12:18:04.235Z,75.57
2018-02-07T12:19:03.830Z,75.19
2018-02-07T12:20:03.824Z,74.90
2018-02-07T12:21:03.855Z,74.24
2018-02-07T12:22:03.867Z,73.96
2018-02-07T12:23:03.816Z,74.71
2018-02-07T12:24:03.833Z,74.96
2018-02-07T12:25:04.015Z,75.53
2018-02-07T12:26:03.802Z,75.15
2018-02-07T12:27:03.798Z,75.72
2018-02-07T12:28:03.799Z,76.19
2018-02-07T12:29:03.789Z,75.72
2018-02-07T12:30:03.780Z,76.57
2018-02-07T12:31:03.776Z,77.04
2018-02-07T12:32:03.771Z,77.86
2018-02-07T12:33:03.772Z,78.14
2018-02-07T12:34:03.765Z,78.90
2018-02-07T12:35:03.757Z,78.71
2018-02-07T12:36:03.772Z,79.60
2018-02-07T12:37:03.746Z,79.13
2018-02-07T12:38:03.769Z,79.69
2018-02-07T12:39:03.739Z,79.41
2018-02-07T12:40:03.735Z,79.22
2018-02-07T12:41:03.729Z,79.13
2018-02-07T12:42:03.724Z,79.60
2018-02-07T12:43:03.721Z,79.13
2018-02-07T12:44:03.715Z,78.27
2018-02-07T12:45:03.711Z,77.80
2018-02-07T12:46:03.701Z,78.18
2018-02-07T12:47:03.712Z,77.89
2018-02-07T12:48:06.555Z,77.42
2018-02-07T12:49:03.685Z,77.23
2018-02-07T12:50:03.683Z,77.67
2018-02-07T12:51:03.692Z,77.48
2018-02-07T12:52:03.673Z,77.67